createdAt,value
2022-10-28T00:01:17.999Z,14.80
2022-10-28T00:03:47.258Z,14.78
2022-10-28T00:06:16.593Z,14.81
2022-10-28T00:08:44.016Z,14.76
2022-10-28T00:11:14.955Z,14.78
2022-10-28T00:13:43.243Z,14.78
2022-10-28T00:16:12.580Z,14.90
2022-10-28T00:18:40.688Z,14.95
2022-10-28T00:21:09.794Z,15.03
2022-10-28T00:23:37.458Z,15.06
2022-10-28T00:26:09.425Z,15.21
2022-10-28T00:28:41.938Z,15.26
2022-10-28T00:31:11.490Z,15.30
2022-10-28T00:33:39.064Z,15.34
2022-10-28T00:36:12.042Z,15.31
2022-10-28T00:38:40.278Z,15.31
2022-10-28T00:41:08.434Z,15.34
2022-10-28T00:43:38.205Z,15.30
2022-10-28T00:46:14.753Z,15.27
2022-10-28T00:48:45.883Z,15.24
2022-10-28T00:51:14.579Z,15.23
2022-10-28T00:53:44.641Z,15.27
2022-10-28T00:56:12.817Z,15.25
2022-10-28T00:58:40.419Z,15.21
2022-10-28T01:01:09.131Z,15.19
2022-10-28T01:03:36.873Z,15.17
2022-10-28T01:06:05.392Z,15.18
2022-10-28T01:08:33.009Z,15.17
2022-10-28T01:11:26.534Z,15.20
2022-10-28T01:14:07.737Z,15.20
2022-10-28T01:16:42.977Z,15.16
2022-10-28T01:19:37.650Z,15.18
2022-10-28T01:22:12.249Z,15.17
2022-10-28T01:25:10.413Z,15.13
2022-10-28T01:28:07.876Z,15.05
2022-10-28T01:30:55.016Z,14.97
2022-10-28T01:33:28.576Z,14.99
2022-10-28T01:36:03.760Z,14.86
2022-10-28T01:38:35.870Z,14.79
2022-10-28T01:41:10.221Z,14.75
2022-10-28T01:43:45.754Z,14.69
2022-10-28T01:46:18.644Z,14.71
2022-10-28T01:48:51.052Z,14.64
2022-10-28T01:51:24.408Z,14.61
2022-10-28T01:53:55.237Z,14.65
2022-10-28T01:56:30.185Z,14.63
2022-10-28T01:59:00.132Z,14.57
2022-10-28T02:01:31.549Z,14.54
2022-10-28T02:03:59.158Z,14.51
2022-10-28T02:06:29.465Z,14.62
2022-10-28T02:09:08.077Z,14.65
2022-10-28T02:11:51.563Z,14.68
2022-10-28T02:14:32.770Z,14.56
2022-10-28T02:17:09.474Z,14.54
2022-10-28T02:19:45.382Z,14.61
2022-10-28T02:22:19.800Z,14.62
2022-10-28T02:24:55.235Z,14.57
2022-10-28T02:27:32.878Z,14.61
2022-10-28T02:30:05.384Z,14.61
2022-10-28T02:32:37.584Z,14.64
2022-10-28T02:35:10.319Z,14.68
2022-10-28T02:37:40.785Z,14.72
2022-10-28T02:40:13.939Z,14.76
2022-10-28T02:42:46.678Z,14.78
2022-10-28T02:45:17.689Z,14.78
2022-10-28T02:47:50.833Z,14.79
2022-10-28T02:50:22.125Z,14.84
2022-10-28T02:52:53.823Z,14.83
2022-10-28T02:55:24.639Z,14.90
2022-10-28T02:57:52.136Z,14.95
2022-10-28T03:00:21.901Z,14.97
2022-10-28T03:02:50.733Z,14.97
2022-10-28T03:05:17.949Z,14.96
2022-10-28T03:07:45.164Z,14.92
2022-10-28T03:10:12.434Z,14.95
2022-10-28T03:12:39.692Z,14.93
2022-10-28T03:15:08.090Z,14.93
2022-10-28T03:17:35.368Z,14.90
2022-10-28T03:20:04.587Z,14.93
2022-10-28T03:22:31.894Z,14.96
2022-10-28T03:24:59.122Z,14.99
2022-10-28T03:27:26.380Z,14.97
2022-10-28T03:29:53.630Z,14.94
2022-10-28T03:34:53.010Z,14.91
2022-10-28T03:37:21.615Z,14.92
2022-10-28T03:39:48.922Z,14.97
2022-10-28T03:42:16.169Z,14.93
2022-10-28T03:44:43.563Z,14.88
2022-10-28T03:47:10.741Z,14.91
2022-10-28T03:49:38.083Z,14.98
2022-10-28T03:52:05.480Z,14.96
2022-10-28T03:54:34.193Z,14.98
2022-10-28T03:57:01.559Z,15.02
2022-10-28T03:59:28.888Z,14.99
2022-10-28T04:01:56.225Z,14.95
2022-10-28T04:04:28.314Z,14.88
2022-10-28T04:06:58.250Z,14.86
2022-10-28T04:09:25.640Z,14.81
2022-10-28T04:11:54.304Z,14.73
2022-10-28T04:14:21.677Z,14.71
2022-10-28T04:16:48.876Z,14.71
2022-10-28T04:19:16.276Z,14.72
2022-10-28T04:21:43.698Z,14.70
2022-10-28T04:24:11.143Z,14.74
2022-10-28T04:26:38.418Z,14.76
2022-10-28T04:29:07.235Z,14.77
2022-10-28T04:31:34.460Z,14.76
2022-10-28T04:34:01.746Z,14.81
2022-10-28T04:36:30.726Z,14.78
2022-10-28T04:38:57.957Z,14.74
2022-10-28T04:41:25.571Z,14.71
2022-10-28T04:43:52.767Z,14.72
2022-10-28T04:46:21.483Z,14.66
2022-10-28T04:48:48.678Z,14.68
2022-10-28T04:51:15.984Z,14.67
2022-10-28T04:53:43.194Z,14.57
2022-10-28T04:56:10.398Z,14.60
2022-10-28T04:58:37.577Z,14.53
2022-10-28T05:01:08.589Z,14.48
2022-10-28T05:03:37.646Z,14.50
2022-10-28T05:06:05.346Z,14.47
2022-10-28T05:08:32.785Z,14.40
2022-10-28T05:11:00.002Z,14.38
2022-10-28T05:13:27.453Z,14.36
2022-10-28T05:15:54.673Z,14.39
2022-10-28T05:18:22.034Z,14.40
2022-10-28T05:20:50.638Z,14.38
2022-10-28T05:23:17.871Z,14.46
2022-10-28T05:25:45.139Z,14.43
2022-10-28T05:28:12.445Z,14.39
2022-10-28T05:30:39.714Z,14.41
2022-10-28T05:33:06.917Z,14.36
2022-10-28T05:35:34.711Z,14.36
2022-10-28T05:38:03.389Z,14.40
2022-10-28T05:40:30.970Z,14.40
2022-10-28T05:42:58.210Z,14.43
2022-10-28T05:45:26.002Z,14.37
2022-10-28T05:47:53.947Z,14.36
2022-10-28T05:50:22.031Z,14.35
2022-10-28T05:52:51.031Z,14.32
2022-10-28T05:55:21.461Z,14.38
2022-10-28T05:57:49.837Z,14.34
2022-10-28T06:00:18.866Z,14.33
2022-10-28T06:02:46.478Z,14.37
2022-10-28T06:05:14.313Z,14.36
2022-10-28T06:07:41.948Z,14.36
2022-10-28T06:10:10.860Z,14.36
2022-10-28T06:12:38.292Z,14.36
2022-10-28T06:15:06.533Z,14.33
2022-10-28T06:17:34.111Z,14.34
2022-10-28T06:20:02.171Z,14.35
2022-10-28T06:22:29.507Z,14.37
2022-10-28T06:24:56.791Z,14.35
2022-10-28T06:27:23.971Z,14.31
2022-10-28T06:29:52.594Z,14.26
2022-10-28T06:32:19.866Z,14.26
2022-10-28T06:34:47.099Z,14.24
2022-10-28T06:37:14.394Z,14.20
2022-10-28T06:39:41.576Z,14.21
2022-10-28T06:42:08.823Z,14.24
2022-10-28T06:44:36.025Z,14.27
2022-10-28T06:47:06.191Z,14.29
2022-10-28T06:49:33.424Z,14.37
2022-10-28T06:52:00.657Z,14.35
2022-10-28T06:54:27.922Z,14.37
2022-10-28T06:56:55.411Z,14.36
2022-10-28T06:59:22.968Z,14.40
2022-10-28T07:01:50.720Z,14.39
2022-10-28T07:04:19.376Z,14.44
2022-10-28T07:06:49.853Z,14.46
2022-10-28T07:09:19.488Z,14.46
2022-10-28T07:11:52.315Z,14.48
2022-10-28T07:14:22.689Z,14.43
2022-10-28T07:16:49.969Z,14.50
2022-10-28T07:19:21.673Z,14.52
2022-10-28T07:21:51.305Z,14.55
2022-10-28T07:24:18.546Z,14.53
2022-10-28T07:26:47.561Z,14.58
2022-10-28T07:29:15.603Z,14.62
2022-10-28T07:31:42.871Z,14.69
2022-10-28T07:34:10.084Z,14.70
2022-10-28T07:36:37.511Z,14.76
2022-10-28T07:39:06.156Z,14.81
2022-10-28T07:41:33.430Z,14.89
2022-10-28T07:44:00.700Z,14.93
2022-10-28T07:46:27.929Z,14.98
2022-10-28T07:48:55.253Z,15.01
2022-10-28T07:51:22.459Z,15.09
2022-10-28T07:53:49.657Z,15.19
2022-10-28T07:56:21.251Z,15.27
2022-10-28T07:58:48.873Z,15.30
2022-10-28T08:01:18.664Z,15.41
2022-10-28T08:03:46.139Z,15.48
2022-10-28T08:06:14.917Z,15.61
2022-10-28T08:08:42.175Z,15.77
2022-10-28T08:11:10.554Z,15.95
2022-10-28T08:13:40.287Z,16.00
2022-10-28T08:16:08.847Z,16.11
2022-10-28T08:18:36.675Z,16.25
2022-10-28T08:21:05.177Z,16.39
2022-10-28T08:23:33.028Z,16.48
2022-10-28T08:26:00.297Z,16.62
2022-10-28T08:28:27.813Z,16.63
2022-10-28T08:31:08.213Z,16.68
2022-10-28T08:33:39.237Z,16.69
2022-10-28T08:36:11.447Z,16.74
2022-10-28T08:38:45.138Z,16.98
2022-10-28T08:41:30.450Z,17.00
2022-10-28T08:44:43.567Z,17.10
2022-10-28T08:47:22.435Z,17.31
2022-10-28T08:49:55.750Z,17.32
2022-10-28T08:52:29.645Z,17.33
2022-10-28T08:55:02.704Z,17.36
2022-10-28T08:57:38.545Z,17.47
2022-10-28T09:00:10.064Z,17.51
2022-10-28T09:02:53.568Z,17.63
2022-10-28T09:05:23.827Z,17.80
2022-10-28T09:07:51.960Z,17.99
2022-10-28T09:10:41.916Z,18.07
2022-10-28T09:13:15.986Z,18.06
2022-10-28T09:15:51.226Z,18.27
2022-10-28T09:18:30.988Z,18.45
2022-10-28T09:21:04.809Z,18.71
2022-10-28T09:23:35.498Z,18.85
2022-10-28T09:26:12.888Z,18.98
2022-10-28T09:28:50.973Z,19.15
2022-10-28T09:31:28.514Z,19.18
2022-10-28T09:34:10.394Z,19.27
2022-10-28T09:36:42.064Z,19.55
2022-10-28T09:39:16.534Z,19.74
2022-10-28T09:41:46.278Z,19.87
2022-10-28T09:44:18.320Z,20.09
2022-10-28T09:46:48.509Z,20.06
2022-10-28T09:49:20.876Z,20.19
2022-10-28T09:51:52.555Z,20.50
2022-10-28T09:54:27.845Z,21.06
2022-10-28T09:56:55.256Z,22.11
2022-10-28T09:59:22.508Z,22.56
2022-10-28T10:01:49.869Z,22.94
2022-10-28T10:04:21.197Z,22.62
2022-10-28T10:06:52.713Z,23.32
2022-10-28T10:09:23.863Z,23.12
2022-10-28T10:11:54.508Z,23.37
2022-10-28T10:14:28.726Z,24.07
2022-10-28T10:17:00.208Z,23.51
2022-10-28T10:19:29.849Z,22.65
2022-10-28T10:21:57.019Z,23.26
2022-10-28T10:24:29.866Z,23.09
2022-10-28T10:26:58.094Z,22.84
2022-10-28T10:29:25.718Z,22.84
2022-10-28T10:32:17.737Z,23.34
2022-10-28T10:34:54.327Z,23.14
2022-10-28T10:37:23.432Z,23.44
2022-10-28T10:40:05.504Z,22.81
2022-10-28T10:42:33.076Z,22.89
2022-10-28T10:45:18.466Z,22.68
2022-10-28T10:47:45.880Z,22.63
2022-10-28T10:50:29.470Z,22.67
2022-10-28T10:52:59.429Z,23.13
2022-10-28T10:55:33.220Z,23.60
2022-10-28T10:58:01.531Z,23.38
2022-10-28T11:00:32.553Z,23.28
2022-10-28T11:03:00.536Z,23.59
2022-10-28T11:05:35.872Z,23.70
2022-10-28T11:08:05.612Z,23.43
2022-10-28T11:10:33.592Z,23.44
2022-10-28T11:13:04.748Z,23.85
2022-10-28T11:15:33.002Z,24.19
2022-10-28T11:18:02.478Z,23.94
2022-10-28T11:20:43.096Z,24.61
2022-10-28T11:23:25.746Z,24.93
2022-10-28T11:25:55.055Z,25.07
2022-10-28T11:28:38.421Z,24.81
2022-10-28T11:31:28.327Z,25.70
2022-10-28T11:34:10.904Z,24.04
2022-10-28T11:36:50.420Z,25.14
2022-10-28T11:39:21.358Z,25.85
2022-10-28T11:42:01.707Z,25.93
2022-10-28T11:47:35.421Z,26.19
2022-10-28T11:50:34.525Z,27.15
2022-10-28T11:53:43.989Z,25.99
2022-10-28T11:56:24.343Z,25.80
2022-10-28T11:59:03.496Z,25.19
2022-10-28T12:01:44.611Z,25.26
2022-10-28T12:04:23.436Z,26.11
2022-10-28T12:07:08.051Z,26.04
2022-10-28T12:09:48.699Z,25.89
2022-10-28T12:12:26.997Z,25.85
2022-10-28T12:15:03.151Z,25.39
2022-10-28T12:17:36.342Z,25.52
2022-10-28T12:20:11.331Z,25.06
2022-10-28T12:22:47.339Z,24.65
2022-10-28T12:25:18.951Z,24.56
2022-10-28T12:27:49.411Z,23.95
2022-10-28T12:30:21.144Z,23.77
2022-10-28T12:32:52.929Z,23.66
2022-10-28T12:35:24.317Z,23.69
2022-10-28T12:37:56.972Z,23.48
2022-10-28T12:40:27.179Z,23.42
2022-10-28T12:42:59.830Z,23.41
2022-10-28T12:45:29.516Z,23.61
2022-10-28T12:48:03.227Z,23.26
2022-10-28T12:50:38.037Z,23.28
2022-10-28T12:53:28.420Z,23.22
2022-10-28T12:55:58.781Z,23.07
2022-10-28T12:58:34.028Z,22.96
2022-10-28T13:01:04.122Z,23.08
2022-10-28T13:03:31.664Z,22.75
2022-10-28T13:06:21.866Z,22.84
2022-10-28T13:09:17.602Z,22.82
2022-10-28T13:12:11.285Z,22.80
2022-10-28T13:15:04.197Z,22.84
2022-10-28T13:17:43.866Z,22.78
2022-10-28T13:20:19.301Z,22.79
2022-10-28T13:23:03.750Z,22.76
2022-10-28T13:25:50.218Z,22.92
2022-10-28T13:28:20.543Z,22.81
2022-10-28T13:30:57.329Z,22.91
2022-10-28T13:33:26.991Z,23.05
2022-10-28T13:35:55.791Z,23.10
2022-10-28T13:38:26.219Z,23.22
2022-10-28T13:41:27.391Z,23.14
2022-10-28T13:44:13.054Z,22.91
2022-10-28T13:47:00.977Z,22.96
2022-10-28T13:49:29.014Z,23.17
2022-10-28T13:52:01.269Z,23.14
2022-10-28T13:54:32.191Z,23.08
2022-10-28T13:57:12.156Z,22.95
2022-10-28T13:59:50.293Z,23.16
2022-10-28T14:02:37.244Z,23.38
2022-10-28T14:05:07.354Z,23.40
2022-10-28T14:07:36.571Z,23.47
2022-10-28T14:10:20.799Z,23.33
2022-10-28T14:12:51.719Z,23.08
2022-10-28T14:15:22.674Z,23.26
2022-10-28T14:18:04.826Z,23.28
2022-10-28T14:20:55.544Z,23.33
2022-10-28T14:23:50.268Z,23.01
2022-10-28T14:26:17.556Z,22.89
2022-10-28T14:28:52.685Z,22.70
2022-10-28T14:31:38.525Z,22.73
2022-10-28T14:34:41.662Z,22.73
2022-10-28T14:37:50.490Z,22.69
2022-10-28T14:40:31.893Z,22.42
2022-10-28T14:43:15.766Z,22.48
2022-10-28T14:46:04.359Z,22.31
2022-10-28T14:48:45.518Z,22.30
2022-10-28T14:51:17.204Z,22.19
2022-10-28T14:53:46.285Z,22.15
2022-10-28T14:58:57.348Z,21.99
2022-10-28T15:01:34.730Z,21.92
2022-10-28T15:04:04.445Z,21.82
2022-10-28T15:06:36.061Z,21.76
2022-10-28T15:09:15.286Z,21.75
2022-10-28T15:11:45.549Z,21.80
2022-10-28T15:14:25.194Z,21.74
2022-10-28T15:16:52.467Z,21.62
2022-10-28T15:19:21.665Z,21.45
2022-10-28T15:22:05.333Z,21.39
2022-10-28T15:24:32.644Z,21.36
2022-10-28T15:26:59.977Z,21.31
2022-10-28T15:29:27.535Z,21.28
2022-10-28T15:32:11.783Z,21.14
2022-10-28T15:34:39.695Z,21.10
2022-10-28T15:37:08.822Z,21.07
2022-10-28T15:39:36.834Z,21.01
2022-10-28T15:42:28.329Z,20.97
2022-10-28T15:44:56.257Z,20.91
2022-10-28T15:47:30.666Z,20.88
2022-10-28T15:50:00.553Z,20.81
2022-10-28T15:52:34.983Z,20.76
2022-10-28T15:55:15.525Z,20.77
2022-10-28T15:57:48.173Z,20.72
2022-10-28T16:00:21.016Z,20.75
2022-10-28T16:02:53.781Z,20.65
2022-10-28T16:05:57.385Z,20.66
2022-10-28T16:08:29.708Z,20.56
2022-10-28T16:11:00.014Z,20.49
2022-10-28T16:13:34.078Z,20.55
2022-10-28T16:16:05.931Z,20.51
2022-10-28T16:18:40.179Z,20.63
2022-10-28T16:21:08.350Z,20.57
2022-10-28T16:23:40.390Z,20.54
2022-10-28T16:26:11.979Z,20.42
2022-10-28T16:28:45.005Z,20.43
2022-10-28T16:31:15.951Z,20.37
2022-10-28T16:33:43.630Z,20.39
2022-10-28T16:36:11.197Z,20.33
2022-10-28T16:38:40.083Z,20.30
2022-10-28T16:41:14.179Z,20.23
2022-10-28T16:43:41.882Z,20.25
2022-10-28T16:46:11.089Z,20.12
2022-10-28T16:48:38.781Z,20.20
2022-10-28T16:51:11.941Z,20.26
2022-10-28T16:53:40.818Z,20.21
2022-10-28T16:56:13.765Z,20.34
2022-10-28T16:58:43.096Z,20.24
2022-10-28T17:01:11.151Z,20.34
2022-10-28T17:03:38.532Z,20.35
2022-10-28T17:06:06.101Z,20.34
2022-10-28T17:11:21.958Z,20.20
2022-10-28T17:13:50.552Z,20.17
2022-10-28T17:16:17.783Z,20.21
2022-10-28T17:18:45.090Z,20.18
2022-10-28T17:21:12.386Z,20.13
2022-10-28T17:23:39.952Z,20.19
2022-10-28T17:26:07.174Z,20.20
2022-10-28T17:28:35.963Z,20.14
2022-10-28T17:31:03.630Z,20.21
2022-10-28T17:33:30.936Z,20.20
2022-10-28T17:36:00.779Z,20.18
2022-10-28T17:38:28.838Z,20.16
2022-10-28T17:40:56.507Z,20.12
2022-10-28T17:43:24.472Z,20.15
2022-10-28T17:45:53.081Z,20.13
2022-10-28T17:48:20.295Z,20.08
2022-10-28T17:50:53.483Z,20.13
2022-10-28T17:53:20.715Z,20.14
2022-10-28T17:55:55.484Z,20.20
2022-10-28T17:58:22.861Z,20.17
2022-10-28T18:00:55.269Z,20.24
2022-10-28T18:03:23.974Z,20.14
2022-10-28T18:05:51.208Z,20.16
2022-10-28T18:08:18.621Z,20.14
2022-10-28T18:10:51.441Z,20.14
2022-10-28T18:13:18.748Z,20.09
2022-10-28T18:15:46.012Z,20.05
2022-10-28T18:18:13.226Z,20.06
2022-10-28T18:20:41.896Z,20.03
2022-10-28T18:23:09.127Z,20.09
2022-10-28T18:25:37.178Z,20.12
2022-10-28T18:28:05.580Z,19.99
2022-10-28T18:30:32.795Z,19.94
2022-10-28T18:33:00.007Z,19.86
2022-10-28T18:35:27.605Z,19.88
2022-10-28T18:37:56.516Z,19.81
2022-10-28T18:40:24.069Z,19.80
2022-10-28T18:42:51.263Z,19.77
2022-10-28T18:45:18.459Z,19.78
2022-10-28T18:47:45.668Z,19.74
2022-10-28T18:50:12.923Z,19.75
2022-10-28T18:52:40.206Z,19.70
2022-10-28T18:55:09.466Z,19.76
2022-10-28T18:57:36.691Z,19.70
2022-10-28T19:00:20.281Z,19.65
2022-10-28T19:02:48.051Z,19.70
2022-10-28T19:05:15.499Z,19.68
2022-10-28T19:07:42.736Z,19.60
2022-10-28T19:10:11.899Z,19.60
2022-10-28T19:12:42.885Z,19.55
2022-10-28T19:15:12.398Z,19.50
2022-10-28T19:17:39.589Z,19.48
2022-10-28T19:20:07.770Z,19.44
2022-10-28T19:22:35.307Z,19.39
2022-10-28T19:25:02.572Z,19.34
2022-10-28T19:27:32.366Z,19.27
2022-10-28T19:29:59.564Z,19.23
2022-10-28T19:32:26.800Z,19.25
2022-10-28T19:34:54.140Z,19.22
2022-10-28T19:37:21.397Z,19.23
2022-10-28T19:39:51.846Z,19.15
2022-10-28T19:42:22.839Z,19.07
2022-10-28T19:44:51.883Z,19.05
2022-10-28T19:47:19.272Z,19.04
2022-10-28T19:49:46.905Z,19.04
2022-10-28T19:52:14.145Z,19.04
2022-10-28T19:54:41.355Z,18.95
2022-10-28T19:57:08.720Z,18.92
2022-10-28T19:59:36.227Z,18.90
2022-10-28T20:02:05.026Z,18.90
2022-10-28T20:04:32.264Z,18.88
2022-10-28T20:06:59.550Z,18.81
2022-10-28T20:09:29.116Z,18.80
2022-10-28T20:11:56.549Z,18.73
2022-10-28T20:14:23.866Z,18.74
2022-10-28T20:16:51.173Z,18.72
2022-10-28T20:19:19.800Z,18.69
2022-10-28T20:21:47.189Z,18.62
2022-10-28T20:24:14.491Z,18.69
2022-10-28T20:26:41.775Z,18.68
2022-10-28T20:29:09.213Z,18.59
2022-10-28T20:31:36.556Z,18.49
2022-10-28T20:34:04.257Z,18.42
2022-10-28T20:36:34.878Z,18.37
2022-10-28T20:39:04.214Z,18.33
2022-10-28T20:41:33.995Z,18.34
2022-10-28T20:44:01.716Z,18.31
2022-10-28T20:46:29.644Z,18.39
2022-10-28T20:48:57.200Z,18.40
2022-10-28T20:51:25.747Z,18.37
2022-10-28T20:53:54.587Z,18.35
2022-10-28T20:56:23.455Z,18.33
2022-10-28T20:58:51.768Z,18.34
2022-10-28T21:01:21.077Z,18.36
2022-10-28T21:03:49.614Z,18.37
2022-10-28T21:06:17.580Z,18.39
2022-10-28T21:08:47.445Z,18.32
2022-10-28T21:11:17.556Z,18.30
2022-10-28T21:13:49.766Z,18.28
2022-10-28T21:16:17.259Z,18.23
2022-10-28T21:18:44.647Z,18.18
2022-10-28T21:21:12.286Z,18.11
2022-10-28T21:23:39.569Z,18.10
2022-10-28T21:26:08.111Z,17.98
2022-10-28T21:28:36.832Z,17.91
2022-10-28T21:31:05.860Z,17.86
2022-10-28T21:33:34.453Z,17.87
2022-10-28T21:36:03.847Z,17.76
2022-10-28T21:38:31.131Z,17.67
2022-10-28T21:40:59.783Z,17.63
2022-10-28T21:43:28.809Z,17.60
2022-10-28T21:45:57.819Z,17.51
2022-10-28T21:48:27.444Z,17.46
2022-10-28T21:50:56.211Z,17.44
2022-10-28T21:53:23.848Z,17.41
2022-10-28T21:55:53.030Z,17.38
2022-10-28T21:58:21.173Z,17.34
2022-10-28T22:00:48.375Z,17.32
2022-10-28T22:03:16.957Z,17.32
2022-10-28T22:05:50.111Z,17.32
2022-10-28T22:08:17.507Z,17.26
2022-10-28T22:10:44.701Z,17.23
2022-10-28T22:13:11.926Z,17.21
2022-10-28T22:15:39.169Z,17.19
2022-10-28T22:18:06.388Z,17.18
2022-10-28T22:20:35.162Z,17.18
2022-10-28T22:23:02.394Z,17.11
2022-10-28T22:25:29.596Z,17.06
2022-10-28T22:27:56.790Z,17.04
2022-10-28T22:30:23.961Z,17.03
2022-10-28T22:32:51.211Z,16.97
2022-10-28T22:35:18.411Z,16.94
2022-10-28T22:37:47.020Z,16.89
2022-10-28T22:40:14.289Z,16.88
2022-10-28T22:42:41.483Z,16.84
2022-10-28T22:45:09.371Z,16.81
2022-10-28T22:47:36.688Z,16.82
2022-10-28T22:50:04.483Z,16.71
2022-10-28T22:52:31.683Z,16.68
2022-10-28T22:55:00.288Z,16.65
2022-10-28T22:57:27.487Z,16.62
2022-10-28T22:59:54.676Z,16.52
2022-10-28T23:02:22.115Z,16.53
2022-10-28T23:04:49.454Z,16.53
2022-10-28T23:07:16.734Z,16.41
2022-10-28T23:09:43.967Z,16.41
2022-10-28T23:12:12.605Z,16.42
2022-10-28T23:14:39.815Z,16.43
2022-10-28T23:17:07.875Z,16.40
2022-10-28T23:19:35.053Z,16.45
2022-10-28T23:22:02.313Z,16.49
2022-10-28T23:24:29.532Z,16.52
2022-10-28T23:29:30.276Z,16.57
2022-10-28T23:31:57.555Z,16.50
2022-10-28T23:34:24.758Z,16.51
2022-10-28T23:36:52.012Z,16.46
2022-10-28T23:39:19.217Z,16.46
2022-10-28T23:41:46.486Z,16.39
2022-10-28T23:44:13.930Z,16.36
2022-10-28T23:46:42.453Z,16.30
2022-10-28T23:49:09.685Z,16.17
2022-10-28T23:51:36.886Z,16.21
2022-10-28T23:54:04.176Z,16.18
2022-10-28T23:56:31.427Z,16.17
2022-10-28T23:58:58.814Z,16.17
